createdAt,value
2019-03-15T00:01:40.213Z,1.73
2019-03-15T00:04:08.660Z,1.17
2019-03-15T00:06:37.068Z,1.77
2019-03-15T00:09:07.577Z,1.00
2019-03-15T00:11:35.983Z,1.17
2019-03-15T00:14:04.629Z,1.20
2019-03-15T00:16:33.290Z,1.40
2019-03-15T00:19:01.711Z,1.47
2019-03-15T00:21:30.101Z,1.60
2019-03-15T00:23:58.509Z,1.40
2019-03-15T00:26:26.911Z,1.27
2019-03-15T00:28:55.317Z,1.40
2019-03-15T00:31:23.733Z,1.20
2019-03-15T00:33:52.118Z,1.53
2019-03-15T00:36:20.549Z,1.10
2019-03-15T00:38:49.243Z,1.10
2019-03-15T00:41:17.653Z,1.80
2019-03-15T00:43:49.176Z,0.93
2019-03-15T00:46:16.170Z,1.30
2019-03-15T00:48:44.578Z,2.10
2019-03-15T00:51:13.011Z,1.40
2019-03-15T00:53:41.502Z,1.30
2019-03-15T00:56:09.916Z,2.20
2019-03-15T00:58:38.318Z,1.60
2019-03-15T01:01:06.715Z,1.40
2019-03-15T01:03:35.098Z,1.37
2019-03-15T01:06:03.490Z,1.57
2019-03-15T01:08:32.189Z,1.43
2019-03-15T01:11:00.574Z,1.00
2019-03-15T01:13:28.974Z,1.07
2019-03-15T01:15:57.405Z,1.10
2019-03-15T01:18:25.799Z,1.20
2019-03-15T01:20:54.190Z,1.47
2019-03-15T01:23:22.600Z,1.13
2019-03-15T01:25:51.018Z,1.43
2019-03-15T01:28:19.410Z,1.30
2019-03-15T01:30:47.883Z,0.93
2019-03-15T01:33:16.291Z,1.37
2019-03-15T01:35:44.680Z,1.40
2019-03-15T01:38:13.071Z,1.40
2019-03-15T01:40:41.518Z,1.60
2019-03-15T01:43:10.181Z,1.43
2019-03-15T01:45:38.571Z,1.50
2019-03-15T01:48:06.983Z,1.60
2019-03-15T01:50:35.411Z,1.33
2019-03-15T01:53:03.820Z,1.27
2019-03-15T01:55:32.207Z,1.70
2019-03-15T01:58:00.614Z,1.63
2019-03-15T02:00:29.035Z,1.10
2019-03-15T02:02:57.439Z,1.73
2019-03-15T02:05:25.833Z,1.43
2019-03-15T02:07:54.586Z,1.60
2019-03-15T02:10:22.988Z,1.17
2019-03-15T02:12:51.386Z,1.30
2019-03-15T02:15:19.786Z,1.10
2019-03-15T02:17:48.897Z,1.53
2019-03-15T02:20:36.654Z,1.60
2019-03-15T02:23:05.067Z,1.57
2019-03-15T02:25:33.492Z,1.27
2019-03-15T02:28:01.888Z,1.87
2019-03-15T02:30:33.506Z,1.50
2019-03-15T02:33:01.913Z,1.57
2019-03-15T02:35:30.297Z,1.07
2019-03-15T02:38:00.140Z,2.03
2019-03-15T02:40:28.801Z,1.23
2019-03-15T02:42:57.203Z,1.47
2019-03-15T02:45:25.611Z,1.40
2019-03-15T02:47:54.026Z,1.60
2019-03-15T02:50:22.415Z,1.67
2019-03-15T02:52:50.827Z,1.50
2019-03-15T02:55:19.232Z,1.73
2019-03-15T02:57:47.624Z,1.20
2019-03-15T03:00:16.044Z,1.70
2019-03-15T03:02:44.715Z,1.60
2019-03-15T03:05:13.281Z,1.10
2019-03-15T03:07:41.657Z,1.20
2019-03-15T03:10:10.448Z,1.60
2019-03-15T03:12:38.834Z,1.87
2019-03-15T03:15:08.437Z,1.27
2019-03-15T03:17:36.843Z,1.70
2019-03-15T03:20:06.776Z,2.50
2019-03-15T03:22:36.051Z,1.67
2019-03-15T03:25:05.671Z,1.70
2019-03-15T03:27:34.357Z,1.53
2019-03-15T03:30:03.129Z,1.83
2019-03-15T03:32:32.157Z,1.47
2019-03-15T03:35:00.680Z,1.73
2019-03-15T03:37:29.339Z,1.47
2019-03-15T03:39:57.775Z,1.20
2019-03-15T03:42:26.164Z,1.40
2019-03-15T03:44:54.562Z,1.03
2019-03-15T03:47:22.950Z,1.07
2019-03-15T03:49:51.359Z,1.33
2019-03-15T03:52:20.075Z,1.43
2019-03-15T03:54:48.470Z,0.90
2019-03-15T03:57:16.878Z,0.87
2019-03-15T03:59:45.291Z,1.10
2019-03-15T04:02:13.798Z,2.27
2019-03-15T04:04:42.190Z,1.30
2019-03-15T04:07:10.926Z,1.37
2019-03-15T04:09:39.331Z,0.97
2019-03-15T04:12:07.727Z,1.67
2019-03-15T04:14:36.127Z,2.23
2019-03-15T04:17:04.525Z,2.17
2019-03-15T04:19:32.935Z,1.80
2019-03-15T04:22:01.338Z,1.50
2019-03-15T04:24:29.731Z,1.63
2019-03-15T04:26:58.146Z,1.70
2019-03-15T04:29:26.554Z,1.43
2019-03-15T04:31:54.948Z,1.10
2019-03-15T04:34:23.347Z,1.73
2019-03-15T04:36:51.754Z,1.60
2019-03-15T04:39:20.147Z,1.20
2019-03-15T04:41:48.547Z,1.20
2019-03-15T04:44:16.935Z,1.37
2019-03-15T04:46:45.326Z,1.57
2019-03-15T04:49:13.735Z,1.20
2019-03-15T04:52:01.478Z,1.40
2019-03-15T04:54:29.883Z,1.13
2019-03-15T04:56:58.290Z,1.13
2019-03-15T04:59:26.700Z,1.50
2019-03-15T05:01:55.106Z,1.60
2019-03-15T05:04:23.518Z,1.67
2019-03-15T05:06:51.957Z,1.20
2019-03-15T05:09:20.347Z,1.23
2019-03-15T05:11:48.738Z,1.43
2019-03-15T05:14:17.456Z,1.67
2019-03-15T05:16:45.870Z,1.60
2019-03-15T05:19:14.268Z,1.27
2019-03-15T05:21:42.666Z,1.73
2019-03-15T05:24:11.144Z,2.00
2019-03-15T05:26:39.542Z,2.20
2019-03-15T05:29:07.934Z,2.13
2019-03-15T05:31:36.599Z,2.50
2019-03-15T05:34:05.011Z,2.13
2019-03-15T05:36:33.650Z,2.03
2019-03-15T05:39:02.066Z,1.70
2019-03-15T05:41:30.466Z,2.60
2019-03-15T05:43:58.890Z,2.30
2019-03-15T05:46:27.288Z,1.80
2019-03-15T05:48:55.771Z,1.33
2019-03-15T05:51:24.177Z,1.63
2019-03-15T05:53:52.612Z,2.43
2019-03-15T05:56:21.319Z,1.50
2019-03-15T05:58:49.722Z,1.40
2019-03-15T06:01:18.113Z,1.43
2019-03-15T06:03:48.754Z,1.40
2019-03-15T06:06:16.649Z,2.43
2019-03-15T06:08:45.039Z,1.93
2019-03-15T06:11:13.674Z,1.60
2019-03-15T06:13:42.079Z,1.83
2019-03-15T06:16:10.504Z,2.10
2019-03-15T06:18:38.907Z,1.80
2019-03-15T06:21:07.381Z,2.13
2019-03-15T06:23:36.291Z,2.13
2019-03-15T06:26:04.719Z,2.03
2019-03-15T06:28:33.210Z,2.47
2019-03-15T06:31:01.599Z,3.20
2019-03-15T06:33:30.026Z,2.17
2019-03-15T06:35:58.527Z,1.97
2019-03-15T06:38:27.015Z,1.37
2019-03-15T06:40:55.417Z,1.77
2019-03-15T06:43:23.814Z,1.80
2019-03-15T06:45:52.275Z,1.60
2019-03-15T06:48:20.670Z,1.40
2019-03-15T06:50:49.075Z,1.27
2019-03-15T06:53:17.467Z,1.70
2019-03-15T06:55:45.881Z,1.40
2019-03-15T06:58:14.267Z,1.10
2019-03-15T07:00:42.675Z,0.80
2019-03-15T07:03:11.062Z,1.00
2019-03-15T07:05:39.784Z,1.00
2019-03-15T07:08:08.293Z,0.87
2019-03-15T07:10:36.708Z,1.07
2019-03-15T07:13:05.115Z,0.87
2019-03-15T07:15:33.503Z,1.00
2019-03-15T07:18:01.910Z,1.20
2019-03-15T07:20:30.300Z,1.10
2019-03-15T07:22:58.727Z,0.93
2019-03-15T07:25:27.114Z,1.27
2019-03-15T07:27:55.507Z,0.87
2019-03-15T07:30:23.907Z,1.00
2019-03-15T07:32:52.320Z,1.00
2019-03-15T07:35:21.037Z,0.93
2019-03-15T07:37:49.425Z,1.10
2019-03-15T07:40:18.389Z,0.50
2019-03-15T07:42:46.907Z,0.70
2019-03-15T07:45:15.381Z,0.60
2019-03-15T07:47:43.788Z,0.50
2019-03-15T07:50:14.761Z,0.60
2019-03-15T07:52:43.512Z,0.57
2019-03-15T07:55:11.897Z,0.40
2019-03-15T07:57:40.283Z,0.53
2019-03-15T08:00:14.360Z,0.50
2019-03-15T08:02:42.753Z,0.53
2019-03-15T08:05:11.223Z,0.40
2019-03-15T08:07:45.229Z,0.70
2019-03-15T08:10:11.590Z,0.60
2019-03-15T08:12:40.048Z,0.63
2019-03-15T08:15:13.194Z,0.53
2019-03-15T08:17:41.601Z,0.80
2019-03-15T08:20:11.798Z,0.40
2019-03-15T08:22:40.212Z,0.53
2019-03-15T08:25:10.554Z,0.60
2019-03-15T08:27:39.293Z,1.50
2019-03-15T08:30:16.017Z,0.50
2019-03-15T08:32:44.503Z,0.80
2019-03-15T08:35:13.535Z,1.57
2019-03-15T08:37:41.954Z,1.00
2019-03-15T08:40:11.756Z,0.57
2019-03-15T08:42:40.174Z,0.57
2019-03-15T08:45:11.638Z,0.80
2019-03-15T08:47:40.089Z,0.50
2019-03-15T08:50:16.110Z,0.30
2019-03-15T08:52:44.815Z,0.60
2019-03-15T08:55:14.050Z,0.80
2019-03-15T08:57:42.456Z,0.70
2019-03-15T09:00:13.204Z,0.90
2019-03-15T09:02:41.742Z,0.60
2019-03-15T09:05:16.342Z,0.73
2019-03-15T09:07:44.746Z,0.77
2019-03-15T09:10:24.118Z,0.90
2019-03-15T09:12:50.123Z,1.13
2019-03-15T09:15:18.515Z,0.90
2019-03-15T09:17:46.903Z,1.07
2019-03-15T09:20:15.882Z,0.63
2019-03-15T09:22:44.759Z,1.00
2019-03-15T09:25:19.904Z,0.93
2019-03-15T09:27:45.850Z,0.73
2019-03-15T09:30:23.194Z,0.93
2019-03-15T09:32:45.502Z,0.90
2019-03-15T09:35:14.092Z,1.10
2019-03-15T09:37:42.506Z,1.40
2019-03-15T09:40:12.437Z,1.20
2019-03-15T09:42:40.847Z,1.80
2019-03-15T09:45:16.943Z,1.67
2019-03-15T09:47:45.332Z,1.70
2019-03-15T09:50:22.955Z,1.60
2019-03-15T09:52:44.898Z,1.70
2019-03-15T09:55:14.062Z,0.83
2019-03-15T09:57:42.434Z,0.80
2019-03-15T10:00:18.008Z,1.10
2019-03-15T10:02:46.415Z,0.80
2019-03-15T10:05:14.866Z,0.70
2019-03-15T10:07:44.067Z,0.63
2019-03-15T10:10:18.617Z,0.70
2019-03-15T10:12:46.845Z,0.60
2019-03-15T10:15:16.342Z,1.00
2019-03-15T10:17:44.816Z,5.10
2019-03-15T10:20:13.833Z,1.57
2019-03-15T10:22:42.252Z,0.20
2019-03-15T10:25:15.364Z,0.10
2019-03-15T10:27:43.834Z,0.03
2019-03-15T10:30:15.326Z,0.10
2019-03-15T10:32:43.732Z,0.00
2019-03-15T10:35:12.403Z,0.10
2019-03-15T10:37:40.833Z,0.03
2019-03-15T10:40:18.156Z,0.00
2019-03-15T10:42:46.579Z,0.10
2019-03-15T10:45:15.271Z,0.10
2019-03-15T10:48:03.034Z,0.00
2019-03-15T10:50:50.861Z,0.00
2019-03-15T10:53:19.258Z,0.10
2019-03-15T10:55:59.419Z,0.00
2019-03-15T10:58:17.791Z,0.00
2019-03-15T11:00:46.474Z,0.20
2019-03-15T11:03:14.882Z,0.20
2019-03-15T11:05:43.296Z,0.20
2019-03-15T11:08:11.765Z,0.00
2019-03-15T11:10:40.170Z,0.00
2019-03-15T11:13:08.569Z,0.10
2019-03-15T11:15:37.009Z,0.00
2019-03-15T11:18:05.403Z,0.10
2019-03-15T11:20:33.799Z,0.00
2019-03-15T11:23:02.214Z,0.00
2019-03-15T11:25:30.629Z,0.00
2019-03-15T11:27:59.194Z,0.10
2019-03-15T11:30:27.629Z,0.00
2019-03-15T11:32:56.094Z,0.07
2019-03-15T11:35:24.487Z,0.00
2019-03-15T11:37:52.878Z,0.20
2019-03-15T11:40:21.294Z,0.10
2019-03-15T11:42:49.708Z,0.10
2019-03-15T11:45:18.098Z,0.17
2019-03-15T11:48:02.832Z,0.10
2019-03-15T11:50:19.042Z,0.00
2019-03-15T11:52:47.462Z,0.20
2019-03-15T11:55:15.883Z,0.10
2019-03-15T11:57:44.292Z,0.07
2019-03-15T12:00:16.846Z,0.03
2019-03-15T12:02:45.290Z,0.10
2019-03-15T12:05:14.238Z,0.60
2019-03-15T12:07:42.715Z,0.30
2019-03-15T12:10:12.663Z,0.13
2019-03-15T12:12:41.065Z,0.20
2019-03-15T12:15:12.527Z,0.00
2019-03-15T12:17:41.197Z,0.07
2019-03-15T12:20:10.832Z,0.03
2019-03-15T12:22:39.221Z,0.10
2019-03-15T12:25:10.697Z,0.10
2019-03-15T12:27:39.110Z,0.10
2019-03-15T12:30:17.040Z,0.20
2019-03-15T12:32:45.427Z,0.20
2019-03-15T12:35:14.684Z,0.20
2019-03-15T12:37:43.082Z,0.30
2019-03-15T12:40:15.259Z,0.20
2019-03-15T12:42:43.654Z,0.00
2019-03-15T12:45:13.190Z,0.20
2019-03-15T12:47:41.614Z,0.10
2019-03-15T12:50:14.242Z,0.10
2019-03-15T12:52:47.820Z,0.10
2019-03-15T12:55:13.715Z,0.30
2019-03-15T12:57:42.290Z,0.20
2019-03-15T13:00:20.474Z,0.17
2019-03-15T13:02:49.403Z,0.50
2019-03-15T13:05:17.888Z,0.20
2019-03-15T13:07:46.274Z,0.20
2019-03-15T13:10:19.576Z,0.20
2019-03-15T13:12:48.009Z,0.30
2019-03-15T13:15:17.539Z,0.23
2019-03-15T13:17:48.812Z,0.30
2019-03-15T13:20:17.574Z,0.13
2019-03-15T13:22:45.970Z,0.30
2019-03-15T13:25:14.634Z,0.30
2019-03-15T13:27:43.341Z,0.20
2019-03-15T13:30:16.434Z,0.30
2019-03-15T13:32:44.838Z,0.10
2019-03-15T13:35:13.500Z,0.10
2019-03-15T13:37:43.145Z,0.07
2019-03-15T13:40:16.656Z,0.10
2019-03-15T13:42:45.066Z,0.10
2019-03-15T13:45:15.486Z,0.13
2019-03-15T13:47:43.903Z,0.20
2019-03-15T13:50:19.499Z,0.10
2019-03-15T13:52:47.919Z,0.10
2019-03-15T13:55:16.349Z,0.10
2019-03-15T13:57:44.738Z,0.10
2019-03-15T14:00:17.219Z,0.10
2019-03-15T14:02:45.635Z,0.10
2019-03-15T14:05:14.603Z,0.10
2019-03-15T14:07:43.010Z,0.10
2019-03-15T14:10:13.616Z,0.00
2019-03-15T14:12:42.078Z,0.00
2019-03-15T14:15:14.632Z,0.17
2019-03-15T14:17:43.027Z,0.10
2019-03-15T14:20:12.771Z,0.27
2019-03-15T14:22:41.630Z,0.27
2019-03-15T14:25:16.055Z,0.20
2019-03-15T14:27:44.478Z,0.10
2019-03-15T14:30:13.819Z,0.10
2019-03-15T14:32:42.213Z,0.30
2019-03-15T14:35:10.855Z,0.37
2019-03-15T14:37:39.352Z,0.43
2019-03-15T14:40:09.421Z,0.50
2019-03-15T14:42:38.356Z,0.73
2019-03-15T14:45:16.515Z,0.20
2019-03-15T14:47:45.046Z,0.40
2019-03-15T14:50:14.214Z,1.30
2019-03-15T14:52:42.619Z,1.33
2019-03-15T14:55:13.223Z,0.50
2019-03-15T14:57:52.158Z,0.57
2019-03-15T15:00:13.806Z,0.00
2019-03-15T15:02:42.206Z,0.00
2019-03-15T15:05:11.978Z,0.10
2019-03-15T15:07:40.523Z,0.10
2019-03-15T15:10:13.645Z,0.10
2019-03-15T15:12:42.076Z,0.10
2019-03-15T15:15:15.342Z,0.30
2019-03-15T15:17:43.731Z,0.20
2019-03-15T15:20:12.772Z,0.30
2019-03-15T15:22:41.483Z,0.30
2019-03-15T15:25:14.992Z,0.30
2019-03-15T15:27:43.459Z,0.30
2019-03-15T15:30:14.003Z,0.27
2019-03-15T15:32:42.388Z,0.20
2019-03-15T15:35:12.820Z,0.30
2019-03-15T15:37:41.296Z,0.30
2019-03-15T15:40:13.579Z,0.10
2019-03-15T15:42:42.226Z,0.10
2019-03-15T15:45:13.837Z,0.13
2019-03-15T15:47:42.307Z,0.20
2019-03-15T15:50:12.064Z,0.10
2019-03-15T15:52:40.459Z,0.20
2019-03-15T15:55:10.632Z,0.10
2019-03-15T15:57:39.052Z,0.20
2019-03-15T16:00:13.364Z,0.10
2019-03-15T16:02:41.825Z,0.10
2019-03-15T16:05:10.753Z,0.00
2019-03-15T16:07:39.171Z,0.10
2019-03-15T16:10:12.671Z,0.10
2019-03-15T16:12:41.163Z,0.10
2019-03-15T16:15:15.358Z,0.10
2019-03-15T16:17:45.492Z,0.00
2019-03-15T16:20:14.054Z,0.17
2019-03-15T16:22:42.447Z,0.10
2019-03-15T16:25:11.584Z,0.10
2019-03-15T16:27:39.998Z,0.20
2019-03-15T16:30:16.654Z,0.10
2019-03-15T16:32:45.135Z,0.10
2019-03-15T16:35:14.313Z,0.17
2019-03-15T16:37:42.877Z,0.10
2019-03-15T16:40:17.278Z,0.10
2019-03-15T16:42:45.662Z,0.10
2019-03-15T16:45:22.922Z,0.10
2019-03-15T16:47:51.389Z,0.10
2019-03-15T16:50:19.902Z,0.07
2019-03-15T16:52:48.311Z,0.30
2019-03-15T16:55:16.963Z,0.30
2019-03-15T16:57:45.396Z,0.20
2019-03-15T17:00:15.090Z,0.10
2019-03-15T17:02:43.788Z,0.10
2019-03-15T17:05:13.325Z,0.10
2019-03-15T17:07:42.168Z,0.10
2019-03-15T17:10:18.408Z,0.10
2019-03-15T17:12:46.802Z,0.20
2019-03-15T17:15:21.108Z,0.10
2019-03-15T17:17:49.591Z,0.30
2019-03-15T17:20:17.980Z,0.40
2019-03-15T17:22:46.404Z,0.20
2019-03-15T17:25:14.891Z,0.40
2019-03-15T17:27:43.619Z,0.20
2019-03-15T17:30:31.422Z,0.70
2019-03-15T17:32:59.838Z,0.40
2019-03-15T17:35:28.258Z,0.20
2019-03-15T17:37:56.646Z,0.57
2019-03-15T17:40:25.062Z,0.30
2019-03-15T17:42:53.464Z,0.33
2019-03-15T17:45:21.870Z,0.30
2019-03-15T17:47:50.578Z,0.53
2019-03-15T17:50:22.438Z,0.50
2019-03-15T17:52:50.839Z,0.40
2019-03-15T17:55:19.543Z,0.70
2019-03-15T17:57:47.954Z,0.70
2019-03-15T18:00:20.591Z,0.70
2019-03-15T18:02:49.006Z,0.60
2019-03-15T18:05:17.399Z,1.43
2019-03-15T18:07:45.820Z,0.30
2019-03-15T18:10:14.412Z,1.20
2019-03-15T18:12:43.067Z,1.20
2019-03-15T18:15:11.714Z,0.60
2019-03-15T18:17:40.112Z,0.30
2019-03-15T18:20:09.549Z,0.20
2019-03-15T18:22:37.981Z,0.60
2019-03-15T18:25:08.119Z,1.10
2019-03-15T18:27:36.510Z,0.97
2019-03-15T18:30:11.010Z,0.30
2019-03-15T18:32:39.415Z,0.40
2019-03-15T18:35:09.351Z,0.87
2019-03-15T18:37:38.718Z,0.10
2019-03-15T18:40:10.328Z,0.10
2019-03-15T18:42:38.877Z,0.10
2019-03-15T18:45:10.261Z,0.20
2019-03-15T18:47:38.670Z,0.10
2019-03-15T18:50:15.650Z,0.17
2019-03-15T18:52:44.096Z,0.00
2019-03-15T18:55:12.485Z,0.20
2019-03-15T18:57:40.901Z,0.10
2019-03-15T19:00:14.834Z,0.00
2019-03-15T19:02:43.226Z,0.00
2019-03-15T19:05:12.161Z,0.13
2019-03-15T19:07:40.614Z,0.07
2019-03-15T19:10:13.937Z,0.10
2019-03-15T19:12:42.337Z,0.03
2019-03-15T19:15:19.118Z,0.10
2019-03-15T19:17:47.510Z,0.00
2019-03-15T19:20:16.854Z,0.10
2019-03-15T19:22:45.326Z,0.10
2019-03-15T19:25:14.710Z,0.10
2019-03-15T19:27:43.284Z,0.10
2019-03-15T19:30:16.171Z,0.03
2019-03-15T19:32:44.627Z,0.20
2019-03-15T19:35:13.099Z,0.00
2019-03-15T19:37:41.584Z,0.10
2019-03-15T19:40:13.050Z,0.10
2019-03-15T19:42:44.790Z,0.17
2019-03-15T19:45:18.678Z,0.20
2019-03-15T19:47:47.147Z,0.60
2019-03-15T19:50:19.710Z,0.80
2019-03-15T19:52:48.141Z,0.90
2019-03-15T19:55:17.093Z,0.00
2019-03-15T19:57:45.483Z,0.20
2019-03-15T20:00:22.854Z,0.20
2019-03-15T20:02:51.311Z,0.20
2019-03-15T20:05:19.778Z,0.17
2019-03-15T20:07:48.361Z,0.13
2019-03-15T20:10:17.458Z,0.17
2019-03-15T20:12:46.125Z,0.10
2019-03-15T20:15:15.864Z,0.10
2019-03-15T20:17:44.424Z,0.40
2019-03-15T20:20:16.788Z,0.20
2019-03-15T20:22:45.226Z,0.30
2019-03-15T20:25:16.835Z,0.20
2019-03-15T20:27:45.517Z,0.10
2019-03-15T20:30:21.482Z,0.20
2019-03-15T20:32:49.372Z,0.30
2019-03-15T20:35:17.787Z,0.27
2019-03-15T20:37:46.179Z,0.20
2019-03-15T20:40:14.914Z,0.30
2019-03-15T20:42:43.380Z,0.33
2019-03-15T20:45:28.241Z,0.20
2019-03-15T20:47:56.884Z,0.30
2019-03-15T20:50:25.295Z,0.20
2019-03-15T20:53:07.225Z,0.30
2019-03-15T20:55:23.859Z,0.30
2019-03-15T20:57:53.859Z,0.30
2019-03-15T21:00:34.715Z,0.30
2019-03-15T21:02:53.014Z,0.20
2019-03-15T21:05:21.534Z,0.13
2019-03-15T21:07:49.960Z,0.10
2019-03-15T21:10:18.802Z,0.27
2019-03-15T21:12:47.218Z,0.10
2019-03-15T21:15:16.479Z,0.00
2019-03-15T21:17:44.950Z,0.07
2019-03-15T21:20:17.213Z,0.10
2019-03-15T21:22:45.710Z,0.10
2019-03-15T21:25:14.115Z,0.10
2019-03-15T21:27:52.919Z,0.10
2019-03-15T21:30:20.548Z,0.20
2019-03-15T21:32:49.035Z,0.10
2019-03-15T21:35:17.514Z,0.10
2019-03-15T21:37:45.914Z,0.10
2019-03-15T21:40:16.558Z,0.00
2019-03-15T21:42:45.027Z,0.00
2019-03-15T21:45:13.609Z,0.10
2019-03-15T21:47:42.115Z,0.00
2019-03-15T21:50:18.344Z,0.00
2019-03-15T21:52:46.816Z,0.00
2019-03-15T21:55:15.257Z,0.00
2019-03-15T21:57:43.662Z,0.00
2019-03-15T22:00:14.166Z,0.00
2019-03-15T22:02:42.563Z,0.10
2019-03-15T22:05:11.309Z,0.10
2019-03-15T22:07:39.763Z,0.03
2019-03-15T22:10:10.823Z,0.10
2019-03-15T22:12:39.422Z,0.00
2019-03-15T22:15:15.199Z,0.20
2019-03-15T22:17:43.659Z,0.10
2019-03-15T22:20:15.664Z,0.10
2019-03-15T22:22:44.061Z,0.00
2019-03-15T22:25:12.531Z,0.00
2019-03-15T22:27:40.986Z,0.00
2019-03-15T22:30:28.722Z,0.10
2019-03-15T22:32:57.162Z,0.00
2019-03-15T22:35:25.551Z,0.10
2019-03-15T22:37:54.010Z,0.20
2019-03-15T22:40:22.434Z,0.10
2019-03-15T22:42:50.951Z,0.10
2019-03-15T22:45:19.378Z,0.17
2019-03-15T22:48:07.166Z,0.10
2019-03-15T22:50:35.595Z,0.10
2019-03-15T22:53:03.999Z,0.10
2019-03-15T22:55:32.395Z,0.10
2019-03-15T22:58:00.802Z,0.10
2019-03-15T23:00:30.845Z,0.10
2019-03-15T23:02:59.356Z,0.00
2019-03-15T23:05:28.259Z,0.00
2019-03-15T23:07:56.892Z,0.00
2019-03-15T23:10:25.346Z,0.10
2019-03-15T23:12:53.751Z,0.00
2019-03-15T23:15:22.210Z,0.00
2019-03-15T23:17:50.898Z,0.10
2019-03-15T23:20:19.367Z,0.07
2019-03-15T23:22:47.761Z,0.10
2019-03-15T23:25:16.186Z,0.00
2019-03-15T23:27:44.583Z,0.10
2019-03-15T23:30:14.618Z,0.10
2019-03-15T23:32:43.106Z,0.17
2019-03-15T23:35:11.501Z,0.10
2019-03-15T23:37:39.969Z,0.20
2019-03-15T23:40:10.798Z,0.10
2019-03-15T23:42:39.258Z,0.13
2019-03-15T23:45:09.507Z,0.10
2019-03-15T23:47:37.909Z,0.10
2019-03-15T23:50:11.327Z,0.47
2019-03-15T23:52:39.809Z,0.20
2019-03-15T23:55:09.170Z,0.13
2019-03-15T23:57:37.669Z,0.10
